sensor_id;sensor_type;location;lat;lon;timestamp;pressure;altitude;pressure_sealevel;temperature;humidity
51287;BME280;37364;46.974;18.916;2023-08-07T00:01:27;153873.28;;;13.98;100.00
51287;BME280;37364;46.974;18.916;2023-08-07T00:03:58;153878.47;;;14.00;100.00
51287;BME280;37364;46.974;18.916;2023-08-07T00:06:30;153878.47;;;14.00;100.00
51287;BME280;37364;46.974;18.916;2023-08-07T00:09:02;153891.44;;;14.05;100.00
51287;BME280;37364;46.974;18.916;2023-08-07T00:11:32;153908.31;;;14.12;100.00
51287;BME280;37364;46.974;18.916;2023-08-07T00:14:03;153912.22;;;14.13;100.00
51287;BME280;37364;46.974;18.916;2023-08-07T00:16:33;153927.78;;;14.19;100.00
51287;BME280;37364;46.974;18.916;2023-08-07T00:19:03;153940.75;;;14.24;100.00
51287;BME280;37364;46.974;18.916;2023-08-07T00:21:36;153955.03;;;14.30;100.00
51287;BME280;37364;46.974;18.916;2023-08-07T00:24:06;153980.97;;;14.40;100.00
51287;BME280;37364;46.974;18.916;2023-08-07T00:26:37;154003.06;;;14.49;100.00
51287;BME280;37364;46.974;18.916;2023-08-07T00:29:07;154013.47;;;14.53;100.00
51287;BME280;37364;46.974;18.916;2023-08-07T00:31:37;154022.59;;;14.57;100.00
51287;BME280;37364;46.974;18.916;2023-08-07T00:34:07;154036.91;;;14.62;100.00
51287;BME280;37364;46.974;18.916;2023-08-07T00:36:40;154053.75;;;14.69;100.00
51287;BME280;37364;46.974;18.916;2023-08-07T00:39:10;154058.94;;;14.71;100.00
51287;BME280;37364;46.974;18.916;2023-08-07T00:41:40;154070.63;;;14.76;100.00
51287;BME280;37364;46.974;18.916;2023-08-07T00:44:10;154064.13;;;14.73;100.00
51287;BME280;37364;46.974;18.916;2023-08-07T00:46:41;154078.41;;;14.79;100.00
51287;BME280;37364;46.974;18.916;2023-08-07T00:49:13;154097.91;;;14.87;100.00
51287;BME280;37364;46.974;18.916;2023-08-07T00:51:47;154087.53;;;14.82;100.00
51287;BME280;37364;46.974;18.916;2023-08-07T00:54:18;154083.63;;;14.81;100.00
51287;BME280;37364;46.974;18.916;2023-08-07T00:56:49;154084.91;;;14.81;100.00
51287;BME280;37364;46.974;18.916;2023-08-07T00:59:21;154097.91;;;14.87;100.00
51287;BME280;37364;46.974;18.916;2023-08-07T01:01:51;154081.03;;;14.80;100.00
51287;BME280;37364;46.974;18.916;2023-08-07T01:04:23;154075.84;;;14.78;100.00
51287;BME280;37364;46.974;18.916;2023-08-07T01:06:56;154077.13;;;14.78;100.00
51287;BME280;37364;46.974;18.916;2023-08-07T01:09:26;154075.84;;;14.78;100.00
51287;BME280;37364;46.974;18.916;2023-08-07T01:12:03;154075.84;;;14.78;100.00
51287;BME280;37364;46.974;18.916;2023-08-07T01:14:40;154079.72;;;14.79;100.00
51287;BME280;37364;46.974;18.916;2023-08-07T01:17:16;154071.94;;;14.76;100.00
51287;BME280;37364;46.974;18.916;2023-08-07T01:19:48;154071.94;;;14.76;100.00
51287;BME280;37364;46.974;18.916;2023-08-07T01:22:22;154068.03;;;14.75;100.00
51287;BME280;37364;46.974;18.916;2023-08-07T01:24:52;154069.31;;;14.75;100.00
51287;BME280;37364;46.974;18.916;2023-08-07T01:27:30;154069.31;;;14.75;100.00
51287;BME280;37364;46.974;18.916;2023-08-07T01:30:18;154065.41;;;14.74;100.00
51287;BME280;37364;46.974;18.916;2023-08-07T01:32:58;154078.41;;;14.79;100.00
51287;BME280;37364;46.974;18.916;2023-08-07T01:35:33;154069.31;;;14.75;100.00
51287;BME280;37364;46.974;18.916;2023-08-07T01:38:07;154073.22;;;14.77;100.00
51287;BME280;37364;46.974;18.916;2023-08-07T01:40:40;154073.22;;;14.77;100.00
51287;BME280;37364;46.974;18.916;2023-08-07T01:43:11;154073.22;;;14.77;100.00
51287;BME280;37364;46.974;18.916;2023-08-07T01:45:41;154082.34;;;14.80;100.00
51287;BME280;37364;46.974;18.916;2023-08-07T01:48:12;154078.41;;;14.79;100.00
51287;BME280;37364;46.974;18.916;2023-08-07T01:50:42;154086.22;;;14.82;100.00
51287;BME280;37364;46.974;18.916;2023-08-07T01:53:14;154069.31;;;14.75;100.00
51287;BME280;37364;46.974;18.916;2023-08-07T01:55:45;154073.22;;;14.77;100.00
51287;BME280;37364;46.974;18.916;2023-08-07T01:58:15;154074.50;;;14.77;100.00
51287;BME280;37364;46.974;18.916;2023-08-07T02:00:47;154065.41;;;14.74;100.00
51287;BME280;37364;46.974;18.916;2023-08-07T02:03:18;154066.75;;;14.74;100.00
51287;BME280;37364;46.974;18.916;2023-08-07T02:05:49;154053.75;;;14.69;100.00
51287;BME280;37364;46.974;18.916;2023-08-07T02:08:22;154057.66;;;14.71;100.00
51287;BME280;37364;46.974;18.916;2023-08-07T02:10:52;154062.84;;;14.73;100.00
51287;BME280;37364;46.974;18.916;2023-08-07T02:13:22;154044.66;;;14.66;100.00
51287;BME280;37364;46.974;18.916;2023-08-07T02:15:52;154039.47;;;14.63;100.00
51287;BME280;37364;46.974;18.916;2023-08-07T02:18:23;154009.56;;;14.52;100.00
51287;BME280;37364;46.974;18.916;2023-08-07T02:20:53;153997.88;;;14.47;100.00
51287;BME280;37364;46.974;18.916;2023-08-07T02:23:27;153986.19;;;14.42;100.00
51287;BME280;37364;46.974;18.916;2023-08-07T02:26:00;153996.59;;;14.47;100.00
51287;BME280;37364;46.974;18.916;2023-08-07T02:28:30;153982.31;;;14.41;100.00
51287;BME280;37364;46.974;18.916;2023-08-07T02:31:01;153974.50;;;14.38;100.00
51287;BME280;37364;46.974;18.916;2023-08-07T02:33:31;153961.50;;;14.33;100.00
51287;BME280;37364;46.974;18.916;2023-08-07T02:36:01;153955.03;;;14.30;100.00
51287;BME280;37364;46.974;18.916;2023-08-07T02:38:34;153958.94;;;14.32;100.00
51287;BME280;37364;46.974;18.916;2023-08-07T02:41:05;153951.13;;;14.29;100.00
51287;BME280;37364;46.974;18.916;2023-08-07T02:43:35;153936.91;;;14.23;100.00
51287;BME280;37364;46.974;18.916;2023-08-07T02:46:05;153943.38;;;14.26;100.00
51287;BME280;37364;46.974;18.916;2023-08-07T02:48:35;153935.56;;;14.22;100.00
51287;BME280;37364;46.974;18.916;2023-08-07T02:51:08;153936.91;;;14.23;100.00
51287;BME280;37364;46.974;18.916;2023-08-07T02:53:41;153931.66;;;14.21;100.00
51287;BME280;37364;46.974;18.916;2023-08-07T02:56:11;153910.91;;;14.13;100.00
51287;BME280;37364;46.974;18.916;2023-08-07T02:58:41;153910.91;;;14.13;100.00
51287;BME280;37364;46.974;18.916;2023-08-07T03:01:11;153908.31;;;14.12;100.00
51287;BME280;37364;46.974;18.916;2023-08-07T03:03:41;153855.09;;;13.91;100.00
51287;BME280;37364;46.974;18.916;2023-08-07T03:06:12;153918.72;;;14.16;100.00
51287;BME280;37364;46.974;18.916;2023-08-07T03:08:45;153894.03;;;14.06;100.00
51287;BME280;37364;46.974;18.916;2023-08-07T03:11:15;153886.22;;;14.03;100.00
51287;BME280;37364;46.974;18.916;2023-08-07T03:13:46;153923.91;;;14.18;100.00
51287;BME280;37364;46.974;18.916;2023-08-07T03:16:17;153881.03;;;14.01;100.00
51287;BME280;37364;46.974;18.916;2023-08-07T03:18:47;153917.41;;;14.15;100.00
51287;BME280;37364;46.974;18.916;2023-08-07T03:21:18;153939.47;;;14.24;100.00
51287;BME280;37364;46.974;18.916;2023-08-07T03:23:51;153877.13;;;13.99;100.00
51287;BME280;37364;46.974;18.916;2023-08-07T03:26:21;153887.56;;;14.03;100.00
51287;BME280;37364;46.974;18.916;2023-08-07T03:28:52;153807.06;;;13.72;100.00
51287;BME280;37364;46.974;18.916;2023-08-07T03:31:22;153849.91;;;13.89;100.00
51287;BME280;37364;46.974;18.916;2023-08-07T03:33:53;153875.84;;;13.99;100.00
51287;BME280;37364;46.974;18.916;2023-08-07T03:36:23;153909.59;;;14.12;100.00
51287;BME280;37364;46.974;18.916;2023-08-07T03:38:56;153785.03;;;13.63;100.00
51287;BME280;37364;46.974;18.916;2023-08-07T03:41:26;153836.91;;;13.83;100.00
51287;BME280;37364;46.974;18.916;2023-08-07T03:43:57;153761.66;;;13.54;100.00
51287;BME280;37364;46.974;18.916;2023-08-07T03:46:28;153752.59;;;13.50;100.00
51287;BME280;37364;46.974;18.916;2023-08-07T03:48:58;153805.78;;;13.71;100.00
51287;BME280;37364;46.974;18.916;2023-08-07T03:51:29;153766.84;;;13.56;100.00
51287;BME280;37364;46.974;18.916;2023-08-07T03:54:02;153849.91;;;13.89;100.00
51287;BME280;37364;46.974;18.916;2023-08-07T03:56:32;153886.22;;;14.03;100.00
51287;BME280;37364;46.974;18.916;2023-08-07T03:59:04;153862.91;;;13.94;100.00
51287;BME280;37364;46.974;18.916;2023-08-07T04:01:35;153857.72;;;13.92;100.00
51287;BME280;37364;46.974;18.916;2023-08-07T04:04:05;153881.03;;;14.01;100.00
51287;BME280;37364;46.974;18.916;2023-08-07T04:06:35;153853.81;;;13.90;100.00
51287;BME280;37364;46.974;18.916;2023-08-07T04:09:08;153907.00;;;14.11;100.00
51287;BME280;37364;46.974;18.916;2023-08-07T04:11:40;153868.09;;;13.96;100.00
51287;BME280;37364;46.974;18.916;2023-08-07T04:14:10;153852.47;;;13.90;100.00
51287;BME280;37364;46.974;18.916;2023-08-07T04:16:41;153803.22;;;13.70;100.00
51287;BME280;37364;46.974;18.916;2023-08-07T04:19:11;153821.34;;;13.77;100.00
51287;BME280;37364;46.974;18.916;2023-08-07T04:21:41;153849.91;;;13.89;100.00
51287;BME280;37364;46.974;18.916;2023-08-07T04:24:14;153821.34;;;13.77;100.00
51287;BME280;37364;46.974;18.916;2023-08-07T04:26:44;153827.88;;;13.80;100.00
51287;BME280;37364;46.974;18.916;2023-08-07T04:29:14;153851.19;;;13.89;100.00
51287;BME280;37364;46.974;18.916;2023-08-07T04:31:44;153823.97;;;13.78;100.00
51287;BME280;37364;46.974;18.916;2023-08-07T04:34:15;153881.03;;;14.01;100.00
51287;BME280;37364;46.974;18.916;2023-08-07T04:36:45;153901.81;;;14.09;100.00
51287;BME280;37364;46.974;18.916;2023-08-07T04:39:20;153914.81;;;14.14;100.00
51287;BME280;37364;46.974;18.916;2023-08-07T04:41:50;153961.50;;;14.33;100.00
51287;BME280;37364;46.974;18.916;2023-08-07T04:44:21;153974.50;;;14.38;100.00
51287;BME280;37364;46.974;18.916;2023-08-07T04:46:51;154005.66;;;14.50;100.00
51287;BME280;37364;46.974;18.916;2023-08-07T04:49:22;154047.28;;;14.67;100.00
51287;BME280;37364;46.974;18.916;2023-08-07T04:51:52;154090.09;;;14.83;100.00
51287;BME280;37364;46.974;18.916;2023-08-07T04:54:25;154123.88;;;14.97;100.00
51287;BME280;37364;46.974;18.916;2023-08-07T04:56:55;154155.00;;;15.09;100.00
51287;BME280;37364;46.974;18.916;2023-08-07T04:59:25;154162.84;;;15.12;100.00
51287;BME280;37364;46.974;18.916;2023-08-07T05:01:57;154205.72;;;15.29;100.00
51287;BME280;37364;46.974;18.916;2023-08-07T05:04:27;154234.25;;;15.40;100.00
51287;BME280;37364;46.974;18.916;2023-08-07T05:06:57;154247.25;;;15.46;100.00
51287;BME280;37364;46.974;18.916;2023-08-07T05:09:30;154292.72;;;15.63;100.00
51287;BME280;37364;46.974;18.916;2023-08-07T05:12:00;154313.50;;;15.72;100.00
51287;BME280;37364;46.974;18.916;2023-08-07T05:14:31;154348.63;;;15.86;100.00
51287;BME280;37364;46.974;18.916;2023-08-07T05:17:01;154401.91;;;16.07;100.00
51287;BME280;37364;46.974;18.916;2023-08-07T05:19:31;154424.03;;;16.15;100.00
51287;BME280;37364;46.974;18.916;2023-08-07T05:22:01;154446.13;;;16.24;100.00
51287;BME280;37364;46.974;18.916;2023-08-07T05:24:34;154457.78;;;16.29;100.00
51287;BME280;37364;46.974;18.916;2023-08-07T05:27:08;154459.13;;;16.29;100.00
51287;BME280;37364;46.974;18.916;2023-08-07T05:29:38;154524.13;;;16.55;100.00
51287;BME280;37364;46.974;18.916;2023-08-07T05:32:14;154547.53;;;16.64;100.00
51287;BME280;37364;46.974;18.916;2023-08-07T05:34:44;154547.53;;;16.64;100.00
51287;BME280;37364;46.974;18.916;2023-08-07T05:37:14;154577.44;;;16.76;100.00
51287;BME280;37364;46.974;18.916;2023-08-07T05:39:47;154595.66;;;16.83;100.00
51287;BME280;37364;46.974;18.916;2023-08-07T05:42:17;154698.41;;;17.24;100.00
51287;BME280;37364;46.974;18.916;2023-08-07T05:44:47;154684.09;;;17.18;100.00
51287;BME280;37364;46.974;18.916;2023-08-07T05:47:17;154706.19;;;17.27;100.00
51287;BME280;37364;46.974;18.916;2023-08-07T05:49:48;154691.91;;;17.21;100.00
51287;BME280;37364;46.974;18.916;2023-08-07T05:52:18;154698.41;;;17.24;100.00
51287;BME280;37364;46.974;18.916;2023-08-07T05:54:51;154694.50;;;17.22;100.00
51287;BME280;37364;46.974;18.916;2023-08-07T05:57:21;154785.53;;;17.58;100.00
51287;BME280;37364;46.974;18.916;2023-08-07T05:59:51;154853.25;;;17.85;100.00
51287;BME280;37364;46.974;18.916;2023-08-07T06:02:21;154831.09;;;17.76;100.00
51287;BME280;37364;46.974;18.916;2023-08-07T06:04:52;154823.25;;;17.73;100.00
51287;BME280;37364;46.974;18.916;2023-08-07T06:07:22;154879.25;;;17.95;100.00
51287;BME280;37364;46.974;18.916;2023-08-07T06:09:55;154831.09;;;17.76;100.00
51287;BME280;37364;46.974;18.916;2023-08-07T06:12:25;154937.81;;;18.18;100.00
51287;BME280;37364;46.974;18.916;2023-08-07T06:14:56;154957.34;;;18.26;100.00
51287;BME280;37364;46.974;18.916;2023-08-07T06:17:26;154880.59;;;17.95;100.00
51287;BME280;37364;46.974;18.916;2023-08-07T06:19:56;155012.00;;;18.47;100.00
51287;BME280;37364;46.974;18.916;2023-08-07T06:22:26;154976.88;;;18.33;100.00
51287;BME280;37364;46.974;18.916;2023-08-07T06:24:59;154937.81;;;18.18;100.00
51287;BME280;37364;46.974;18.916;2023-08-07T06:27:29;154980.78;;;18.35;100.00
51287;BME280;37364;46.974;18.916;2023-08-07T06:30:00;155019.84;;;18.50;100.00
51287;BME280;37364;46.974;18.916;2023-08-07T06:32:32;155103.16;;;18.83;100.00
51287;BME280;37364;46.974;18.916;2023-08-07T06:35:04;155164.38;;;19.07;100.00
51287;BME280;37364;46.974;18.916;2023-08-07T06:37:34;155101.88;;;18.83;100.00
51287;BME280;37364;46.974;18.916;2023-08-07T06:40:09;155086.22;;;18.76;100.00
51287;BME280;37364;46.974;18.916;2023-08-07T06:42:41;155056.25;;;18.65;100.00
51287;BME280;37364;46.974;18.916;2023-08-07T06:45:11;155069.25;;;18.70;100.00
51287;BME280;37364;46.974;18.916;2023-08-07T06:47:42;155131.81;;;18.94;100.00
51287;BME280;37364;46.974;18.916;2023-08-07T06:50:13;155005.50;;;18.45;100.00
51287;BME280;37364;46.974;18.916;2023-08-07T06:52:43;154989.91;;;18.38;100.00
51287;BME280;37364;46.974;18.916;2023-08-07T06:55:16;155120.13;;;18.90;100.00
51287;BME280;37364;46.974;18.916;2023-08-07T06:57:46;155113.56;;;18.87;100.00
51287;BME280;37364;46.974;18.916;2023-08-07T07:00:18;155070.59;;;18.70;100.00
51287;BME280;37364;46.974;18.916;2023-08-07T07:02:48;155091.41;;;18.78;100.00
51287;BME280;37364;46.974;18.916;2023-08-07T07:05:18;155157.84;;;19.05;100.00
51287;BME280;37364;46.974;18.916;2023-08-07T07:07:48;155211.25;;;19.26;100.00
51287;BME280;37364;46.974;18.916;2023-08-07T07:10:21;155380.63;;;19.92;100.00
51287;BME280;37364;46.974;18.916;2023-08-07T07:12:59;155264.66;;;19.47;100.00
51287;BME280;37364;46.974;18.916;2023-08-07T07:15:31;155289.41;;;19.56;100.00
51287;BME280;37364;46.974;18.916;2023-08-07T07:18:12;155260.72;;;19.45;100.00
51287;BME280;37364;46.974;18.916;2023-08-07T07:20:56;155260.72;;;19.45;100.00
51287;BME280;37364;46.974;18.916;2023-08-07T07:23:28;155276.34;;;19.51;100.00
51287;BME280;37364;46.974;18.916;2023-08-07T07:26:03;155229.50;;;19.33;100.00
51287;BME280;37364;46.974;18.916;2023-08-07T07:28:34;155275.06;;;19.51;100.00
51287;BME280;37364;46.974;18.916;2023-08-07T07:31:07;155209.94;;;19.25;100.00
51287;BME280;37364;46.974;18.916;2023-08-07T07:33:41;155351.94;;;19.81;100.00
51287;BME280;37364;46.974;18.916;2023-08-07T07:36:16;155361.06;;;19.85;100.00
51287;BME280;37364;46.974;18.916;2023-08-07T07:38:52;155252.91;;;19.42;100.00
51287;BME280;37364;46.974;18.916;2023-08-07T07:41:25;155173.47;;;19.11;100.00
51287;BME280;37364;46.974;18.916;2023-08-07T07:44:02;155187.78;;;19.16;100.00
51287;BME280;37364;46.974;18.916;2023-08-07T07:46:34;155142.22;;;18.99;100.00
51287;BME280;37364;46.974;18.916;2023-08-07T07:49:04;155105.78;;;18.84;100.00
51287;BME280;37364;46.974;18.916;2023-08-07T07:51:38;155143.50;;;18.99;100.00
51287;BME280;37364;46.974;18.916;2023-08-07T07:54:10;155271.16;;;19.49;100.00
51287;BME280;37364;46.974;18.916;2023-08-07T07:56:44;155273.78;;;19.50;100.00
51287;BME280;37364;46.974;18.916;2023-08-07T07:59:18;155246.41;;;19.40;100.00
51287;BME280;37364;46.974;18.916;2023-08-07T08:01:55;155397.53;;;19.99;100.00
51287;BME280;37364;46.974;18.916;2023-08-07T08:04:32;155371.47;;;19.89;100.00
51287;BME280;37364;46.974;18.916;2023-08-07T08:07:04;155329.81;;;19.72;100.00
51287;BME280;37364;46.974;18.916;2023-08-07T08:09:35;155195.63;;;19.20;100.00
51287;BME280;37364;46.974;18.916;2023-08-07T08:12:09;155298.53;;;19.60;100.00
51287;BME280;37364;46.974;18.916;2023-08-07T08:14:39;155452.25;;;20.21;100.00
51287;BME280;37364;46.974;18.916;2023-08-07T08:17:23;155540.88;;;20.55;100.00
51287;BME280;37364;46.974;18.916;2023-08-07T08:19:55;155550.06;;;20.59;100.00
51287;BME280;37364;46.974;18.916;2023-08-07T08:22:25;155563.09;;;20.64;100.00
51287;BME280;37364;46.974;18.916;2023-08-07T08:24:58;155415.78;;;20.06;100.00
51287;BME280;37364;46.974;18.916;2023-08-07T08:27:35;155462.72;;;20.25;100.00
51287;BME280;37364;46.974;18.916;2023-08-07T08:30:12;155513.53;;;20.45;100.00
51287;BME280;37364;46.974;18.916;2023-08-07T08:32:43;155517.41;;;20.46;100.00
51287;BME280;37364;46.974;18.916;2023-08-07T08:35:13;155518.75;;;20.47;100.00
51287;BME280;37364;46.974;18.916;2023-08-07T08:37:46;155591.75;;;20.76;100.00
51287;BME280;37364;46.974;18.916;2023-08-07T08:40:24;155570.91;;;20.67;100.00
51287;BME280;37364;46.974;18.916;2023-08-07T08:43:03;155773.03;;;21.47;100.00
51287;BME280;37364;46.974;18.916;2023-08-07T08:45:36;155732.56;;;21.31;100.00
51287;BME280;37364;46.974;18.916;2023-08-07T08:48:10;155906.03;;;21.99;100.00
51287;BME280;37364;46.974;18.916;2023-08-07T08:50:48;155921.72;;;22.05;100.00
51287;BME280;37364;46.974;18.916;2023-08-07T08:53:20;155966.06;;;22.23;99.62
51287;BME280;37364;46.974;18.916;2023-08-07T08:55:57;155913.88;;;22.02;100.00
51287;BME280;37364;46.974;18.916;2023-08-07T08:58:31;155775.63;;;21.48;100.00
51287;BME280;37364;46.974;18.916;2023-08-07T09:01:02;155759.91;;;21.42;100.00
51287;BME280;37364;46.974;18.916;2023-08-07T09:03:45;155692.16;;;21.15;100.00
51287;BME280;37364;46.974;18.916;2023-08-07T09:06:21;155673.88;;;21.08;100.00
51287;BME280;37364;46.974;18.916;2023-08-07T09:08:53;155673.88;;;21.08;100.00
51287;BME280;37364;46.974;18.916;2023-08-07T09:11:26;155669.97;;;21.06;100.00
51287;BME280;37364;46.974;18.916;2023-08-07T09:14:02;155607.41;;;20.82;100.00
51287;BME280;37364;46.974;18.916;2023-08-07T09:16:41;155569.59;;;20.67;100.00
51287;BME280;37364;46.974;18.916;2023-08-07T09:19:15;155907.38;;;22.00;100.00
51287;BME280;37364;46.974;18.916;2023-08-07T09:22:04;155883.88;;;21.90;100.00
51287;BME280;37364;46.974;18.916;2023-08-07T09:24:36;155642.63;;;20.96;99.12
51287;BME280;37364;46.974;18.916;2023-08-07T09:27:11;155925.59;;;22.07;100.00
51287;BME280;37364;46.974;18.916;2023-08-07T09:29:44;155689.53;;;21.14;97.29
51287;BME280;37364;46.974;18.916;2023-08-07T09:32:16;155741.69;;;21.35;100.00
51287;BME280;37364;46.974;18.916;2023-08-07T09:34:49;155672.59;;;21.07;100.00
51287;BME280;37364;46.974;18.916;2023-08-07T09:37:19;155539.59;;;20.55;100.00
51287;BME280;37364;46.974;18.916;2023-08-07T09:39:54;155740.38;;;21.34;100.00
51287;BME280;37364;46.974;18.916;2023-08-07T09:42:31;155812.16;;;21.62;99.00
51287;BME280;37364;46.974;18.916;2023-08-07T09:45:21;155720.81;;;21.26;99.44
51287;BME280;37364;46.974;18.916;2023-08-07T09:48:01;155698.66;;;21.18;100.00
51287;BME280;37364;46.974;18.916;2023-08-07T09:50:40;155535.66;;;20.53;100.00
51287;BME280;37364;46.974;18.916;2023-08-07T09:53:12;155743.00;;;21.35;100.00
51287;BME280;37364;46.974;18.916;2023-08-07T09:55:44;155689.53;;;21.14;100.00
51287;BME280;37364;46.974;18.916;2023-08-07T09:58:18;156015.66;;;22.42;100.00
51287;BME280;37364;46.974;18.916;2023-08-07T10:00:54;155937.38;;;22.11;100.00
51287;BME280;37364;46.974;18.916;2023-08-07T10:03:27;156185.34;;;23.09;100.00
51287;BME280;37364;46.974;18.916;2023-08-07T10:05:58;156096.59;;;22.74;99.52
51287;BME280;37364;46.974;18.916;2023-08-07T10:08:30;155754.72;;;21.40;100.00
51287;BME280;37364;46.974;18.916;2023-08-07T10:11:10;155525.25;;;20.49;100.00
51287;BME280;37364;46.974;18.916;2023-08-07T10:13:47;155424.91;;;20.10;100.00
51287;BME280;37364;46.974;18.916;2023-08-07T10:16:24;155466.59;;;20.26;100.00
51287;BME280;37364;46.974;18.916;2023-08-07T10:19:01;155385.81;;;19.94;100.00
51287;BME280;37364;46.974;18.916;2023-08-07T10:21:32;155387.13;;;19.95;100.00
51287;BME280;37364;46.974;18.916;2023-08-07T10:24:05;155249.03;;;19.41;100.00
51287;BME280;37364;46.974;18.916;2023-08-07T10:26:37;155251.59;;;19.42;100.00
51287;BME280;37364;46.974;18.916;2023-08-07T10:29:14;155200.84;;;19.22;100.00
51287;BME280;37364;46.974;18.916;2023-08-07T10:31:51;155048.44;;;18.62;100.00
51287;BME280;37364;46.974;18.916;2023-08-07T10:34:22;155074.50;;;18.72;100.00
51287;BME280;37364;46.974;18.916;2023-08-07T10:36:52;155032.81;;;18.55;100.00
51287;BME280;37364;46.974;18.916;2023-08-07T10:39:23;154896.19;;;18.02;100.00
51287;BME280;37364;46.974;18.916;2023-08-07T10:41:54;154838.88;;;17.79;100.00
51287;BME280;37364;46.974;18.916;2023-08-07T10:44:31;154700.97;;;17.25;100.00
51287;BME280;37364;46.974;18.916;2023-08-07T10:47:04;154606.06;;;16.87;100.00
51287;BME280;37364;46.974;18.916;2023-08-07T10:49:37;154477.28;;;16.36;100.00
51287;BME280;37364;46.974;18.916;2023-08-07T10:52:12;154470.81;;;16.34;100.00
51287;BME280;37364;46.974;18.916;2023-08-07T10:54:48;154541.00;;;16.61;100.00
51287;BME280;37364;46.974;18.916;2023-08-07T10:57:20;154548.81;;;16.65;100.00
51287;BME280;37364;46.974;18.916;2023-08-07T11:00:02;154552.72;;;16.66;100.00
51287;BME280;37364;46.974;18.916;2023-08-07T11:02:42;154550.09;;;16.65;100.00
51287;BME280;37364;46.974;18.916;2023-08-07T11:05:19;154603.47;;;16.86;100.00
51287;BME280;37364;46.974;18.916;2023-08-07T11:07:53;154669.78;;;17.12;100.00
51287;BME280;37364;46.974;18.916;2023-08-07T11:10:31;154673.69;;;17.14;100.00
51287;BME280;37364;46.974;18.916;2023-08-07T11:13:04;154682.81;;;17.17;100.00
51287;BME280;37364;46.974;18.916;2023-08-07T11:15:39;154685.38;;;17.18;100.00
51287;BME280;37364;46.974;18.916;2023-08-07T11:18:12;154685.38;;;17.18;100.00
51287;BME280;37364;46.974;18.916;2023-08-07T11:20:48;154638.59;;;17.00;100.00
51287;BME280;37364;46.974;18.916;2023-08-07T11:23:25;154736.09;;;17.38;100.00
51287;BME280;37364;46.974;18.916;2023-08-07T11:26:01;154663.28;;;17.10;100.00
51287;BME280;37364;46.974;18.916;2023-08-07T11:28:38;154690.56;;;17.20;100.00
51287;BME280;37364;46.974;18.916;2023-08-07T11:31:08;154702.31;;;17.25;100.00
51287;BME280;37364;46.974;18.916;2023-08-07T11:33:43;154788.16;;;17.59;100.00
51287;BME280;37364;46.974;18.916;2023-08-07T11:36:14;154794.63;;;17.62;100.00
51287;BME280;37364;46.974;18.916;2023-08-07T11:38:46;154858.44;;;17.87;100.00
51287;BME280;37364;46.974;18.916;2023-08-07T11:41:24;154967.75;;;18.30;100.00
51287;BME280;37364;46.974;18.916;2023-08-07T11:43:56;155105.78;;;18.84;100.00
51287;BME280;37364;46.974;18.916;2023-08-07T11:46:27;155101.88;;;18.83;100.00
51287;BME280;37364;46.974;18.916;2023-08-07T11:49:02;154982.06;;;18.35;100.00
51287;BME280;37364;46.974;18.916;2023-08-07T11:51:33;154922.22;;;18.12;100.00
51287;BME280;37364;46.974;18.916;2023-08-07T11:54:04;154978.16;;;18.34;100.00
51287;BME280;37364;46.974;18.916;2023-08-07T11:56:36;154954.72;;;18.25;100.00
51287;BME280;37364;46.974;18.916;2023-08-07T11:59:12;154915.72;;;18.09;100.00
51287;BME280;37364;46.974;18.916;2023-08-07T12:01:47;154953.44;;;18.24;100.00
51287;BME280;37364;46.974;18.916;2023-08-07T12:04:22;155048.44;;;18.62;100.00
51287;BME280;37364;46.974;18.916;2023-08-07T12:06:53;155109.69;;;18.86;100.00
51287;BME280;37364;46.974;18.916;2023-08-07T12:09:25;155233.34;;;19.34;100.00
51287;BME280;37364;46.974;18.916;2023-08-07T12:11:58;155178.66;;;19.13;100.00
51287;BME280;37364;46.974;18.916;2023-08-07T12:14:30;155144.84;;;19.00;100.00
51287;BME280;37364;46.974;18.916;2023-08-07T12:17:01;155173.47;;;19.11;100.00
51287;BME280;37364;46.974;18.916;2023-08-07T12:19:41;155125.31;;;18.92;100.00
51287;BME280;37364;46.974;18.916;2023-08-07T12:22:13;155169.59;;;19.09;100.00
51287;BME280;37364;46.974;18.916;2023-08-07T12:24:44;155215.16;;;19.27;100.00
51287;BME280;37364;46.974;18.916;2023-08-07T12:27:15;155168.25;;;19.09;100.00
51287;BME280;37364;46.974;18.916;2023-08-07T12:29:47;155111.00;;;18.86;100.00
51287;BME280;37364;46.974;18.916;2023-08-07T12:32:18;155222.94;;;19.30;100.00
51287;BME280;37364;46.974;18.916;2023-08-07T12:34:51;155372.78;;;19.89;100.00
51287;BME280;37364;46.974;18.916;2023-08-07T12:37:24;155413.22;;;20.05;100.00
51287;BME280;37364;46.974;18.916;2023-08-07T12:39:54;155375.41;;;19.90;100.00
51287;BME280;37364;46.974;18.916;2023-08-07T12:42:44;155186.50;;;19.16;100.00
51287;BME280;37364;46.974;18.916;2023-08-07T12:45:15;155116.19;;;18.88;100.00
51287;BME280;37364;46.974;18.916;2023-08-07T12:48:06;155229.50;;;19.33;100.00
51287;BME280;37364;46.974;18.916;2023-08-07T12:50:39;155241.19;;;19.38;100.00
51287;BME280;37364;46.974;18.916;2023-08-07T12:53:10;155288.06;;;19.56;100.00
51287;BME280;37364;46.974;18.916;2023-08-07T12:55:40;155249.03;;;19.41;100.00
51287;BME280;37364;46.974;18.916;2023-08-07T12:58:10;155384.53;;;19.94;100.00